Lynn, Indiana
Current Conditions -  °F | °C
As of 1:15 PM on Thursday 27 Nov 2014 (Local Time) from KVES Reporting Station
Overcast Overcast  
Wind Chill: 22°   Ceiling: 1700
Heat Index: 32°   Visibility: 7mi
Dew Point: 27°   Wind: 14mph
Humidity: 80%   Direction: 280°W
Pressure: 30.23"   Gusts: NA
Location:  40.05°N, 84.94°W
Report Text: KVES 271815Z AUTO 28012KT 7SM BKN017 OVC025 00/M03 A3023 RMK AO2
Loading
Personal Weather Stations






























Interactive Weather Map New forecast layout! Learn more

10-Day Weather Forecast

Advertisements
Track Severe Weather on mobile